Time;durP1;ratioP1;P1;durP2;ratioP2;P2;SDS_P1;SDS_P2;PMS_P1;PMS_P2;Temp;Humidity;BMP_temperature;BMP_pressure;BME280_temperature;BME280_humidity;BME280_pressure;Samples;Min_cycle;Max_cycle;Signal;HPM_P1;HPM_P2
2023/04/09 00:02:08;;;;;;;17.20;14.95;;;;;;;;;;4887662;29;20029;-81
2023/04/09 00:04:33;;;;;;;20.00;18.08;;;;;;;;;;4889808;29;20021;-81
2023/04/09 00:06:59;;;;;;;18.50;16.73;;;;;;;;;;4885853;29;20539;-80
2023/04/09 00:09:24;;;;;;;15.38;13.88;;;;;;;;;;4885676;29;20017;-82
2023/04/09 00:11:49;;;;;;;15.82;14.32;;;;;;;;;;4886719;29;20088;-80
2023/04/09 00:14:15;;;;;;;19.80;17.73;;;;;;;;;;4887215;29;20021;-81
2023/04/09 00:16:40;;;;;;;17.58;15.73;;;;;;;;;;4881439;29;20040;-80
2023/04/09 00:19:06;;;;;;;16.95;15.45;;;;;;;;;;4879796;29;20088;-81
2023/04/09 00:21:31;;;;;;;17.88;16.08;;;;;;;;;;4881636;29;20439;-79
2023/04/09 00:23:57;;;;;;;17.52;15.73;;;;;;;;;;4883466;29;20052;-81
2023/04/09 00:26:22;;;;;;;17.98;16.17;;;;;;;;;;4886090;29;20547;-80
2023/04/09 00:28:47;;;;;;;17.87;15.97;;;;;;;;;;4877559;29;20037;-80
2023/04/09 00:31:12;;;;;;;24.27;21.88;;;;;;;;;;4880473;29;20270;-81
2023/04/09 00:33:38;;;;;;;51.30;37.23;;;;;;;;;;4878706;29;20041;-80
2023/04/09 00:36:03;;;;;;;44.83;35.87;;;;;;;;;;4882545;29;20281;-80
2023/04/09 00:38:28;;;;;;;28.73;24.80;;;;;;;;;;4887916;29;20282;-81
2023/04/09 00:40:54;;;;;;;20.33;18.20;;;;;;;;;;4876431;29;20057;-79
2023/04/09 00:43:19;;;;;;;18.73;16.92;;;;;;;;;;4877833;29;20057;-81
2023/04/09 00:45:44;;;;;;;18.05;16.35;;;;;;;;;;4900609;29;20021;-82
2023/04/09 00:48:11;;;;;;;19.60;16.52;;;;;;;;;;4892337;29;20328;-81
2023/04/09 00:50:36;;;;;;;20.23;18.13;;;;;;;;;;4894736;29;20032;-81
2023/04/09 00:53:01;;;;;;;19.73;17.90;;;;;;;;;;4894962;29;20072;-81
2023/04/09 00:55:27;;;;;;;21.35;19.10;;;;;;;;;;4895267;29;20056;-83
2023/04/09 00:57:52;;;;;;;20.60;18.27;;;;;;;;;;4893235;29;20280;-81
2023/04/09 01:00:17;;;;;;;24.02;21.50;;;;;;;;;;4892622;29;20033;-80
2023/04/09 01:02:43;;;;;;;24.23;21.65;;;;;;;;;;4875284;29;20491;-82
2023/04/09 01:05:09;;;;;;;23.55;20.92;;;;;;;;;;4874957;29;20025;-83
2023/04/09 01:07:53;;;;;;;19.73;17.77;;;;;;;;;;4871744;29;20404;-82
2023/04/09 01:10:27;;;;;;;21.33;19.10;;;;;;;;;;4877495;29;20032;-82
2023/04/09 01:12:52;;;;;;;19.67;17.65;;;;;;;;;;4886027;29;20063;-82
2023/04/09 01:15:21;;;;;;;21.95;19.75;;;;;;;;;;4885989;29;20021;-82
2023/04/09 01:17:51;;;;;;;21.45;19.20;;;;;;;;;;4882732;29;20109;-81
2023/04/09 01:20:36;;;;;;;20.08;18.08;;;;;;;;;;4880659;29;20025;-80
2023/04/09 01:23:07;;;;;;;20.70;18.65;;;;;;;;;;4882471;29;20029;-82
2023/04/09 01:25:41;;;;;;;19.27;17.48;;;;;;;;;;4891910;29;20025;-82
2023/04/09 01:28:15;;;;;;;24.48;21.48;;;;;;;;;;4883749;29;20042;-81
2023/04/09 01:30:42;;;;;;;21.25;19.02;;;;;;;;;;4872844;29;20021;-81
2023/04/09 01:33:08;;;;;;;20.40;18.17;;;;;;;;;;4869705;29;20033;-82
2023/04/09 01:35:33;;;;;;;22.48;20.05;;;;;;;;;;4873504;29;20045;-80
2023/04/09 01:37:59;;;;;;;20.60;18.48;;;;;;;;;;4883928;29;20065;-82
2023/04/09 01:40:24;;;;;;;21.13;19.08;;;;;;;;;;4888147;29;20483;-80
2023/04/09 01:42:50;;;;;;;17.55;15.85;;;;;;;;;;4886094;29;20091;-82
2023/04/09 01:45:16;;;;;;;20.77;18.73;;;;;;;;;;4889829;29;20558;-81
2023/04/09 01:47:41;;;;;;;20.90;17.23;;;;;;;;;;4885882;29;20041;-82
2023/04/09 01:50:07;;;;;;;18.88;16.90;;;;;;;;;;4886614;29;20036;-82
2023/04/09 01:52:32;;;;;;;18.40;16.60;;;;;;;;;;4883800;29;20076;-82
2023/04/09 01:54:58;;;;;;;18.15;16.45;;;;;;;;;;4880885;29;20060;-81
2023/04/09 01:57:23;;;;;;;18.73;16.92;;;;;;;;;;4885141;29;20021;-81
2023/04/09 01:59:48;;;;;;;19.63;17.73;;;;;;;;;;4887852;29;20025;-81
2023/04/09 02:02:19;;;;;;;20.35;18.20;;;;;;;;;;4875089;29;20044;-82
2023/04/09 02:04:46;;;;;;;20.30;18.02;;;;;;;;;;4891128;29;20040;-82
2023/04/09 02:07:11;;;;;;;19.67;17.77;;;;;;;;;;4883857;29;20043;-80
2023/04/09 02:09:38;;;;;;;21.33;19.13;;;;;;;;;;4878962;29;20382;-82
2023/04/09 02:12:05;;;;;;;21.05;18.95;;;;;;;;;;4877097;29;20040;-81
2023/04/09 02:14:34;;;;;;;22.85;20.63;;;;;;;;;;4881206;29;20085;-81
2023/04/09 02:16:59;;;;;;;25.10;22.60;;;;;;;;;;4885706;29;20033;-81
2023/04/09 02:19:37;;;;;;;22.92;20.60;;;;;;;;;;4881281;29;20093;-81
2023/04/09 02:22:03;;;;;;;21.73;19.55;;;;;;;;;;4891478;29;20081;-82
2023/04/09 02:24:28;;;;;;;21.17;18.95;;;;;;;;;;4880099;29;20048;-80
2023/04/09 02:26:53;;;;;;;20.13;17.80;;;;;;;;;;4877606;29;20029;-81
2023/04/09 02:29:19;;;;;;;26.30;23.60;;;;;;;;;;4893929;29;20337;-81
2023/04/09 02:31:44;;;;;;;27.02;24.23;;;;;;;;;;4892297;29;20018;-81
2023/04/09 02:34:09;;;;;;;27.13;20.33;;;;;;;;;;4867289;29;20090;-82
2023/04/09 02:36:36;;;;;;;26.35;23.52;;;;;;;;;;4879043;29;20017;-82
2023/04/09 02:39:01;;;;;;;23.45;20.23;;;;;;;;;;4882380;29;20028;-79
2023/04/09 02:41:26;;;;;;;22.42;20.13;;;;;;;;;;4884228;29;20119;-81
2023/04/09 02:43:52;;;;;;;26.10;20.50;;;;;;;;;;4889619;29;20445;-80
2023/04/09 02:46:17;;;;;;;27.05;24.25;;;;;;;;;;4878819;29;20502;-82
2023/04/09 02:48:42;;;;;;;26.92;23.20;;;;;;;;;;4882663;29;20134;-82
2023/04/09 02:51:07;;;;;;;28.65;25.55;;;;;;;;;;4894058;29;20033;-82
2023/04/09 02:53:33;;;;;;;33.63;27.17;;;;;;;;;;4864112;29;20033;-81
2023/04/09 02:55:58;;;;;;;32.00;26.25;;;;;;;;;;4880286;29;20021;-81
2023/04/09 02:58:23;;;;;;;33.60;25.40;;;;;;;;;;4894258;29;20033;-81
2023/04/09 03:00:48;;;;;;;28.67;25.13;;;;;;;;;;4891844;29;20045;-81
2023/04/09 03:03:14;;;;;;;27.40;24.02;;;;;;;;;;4879139;29;20033;-80
2023/04/09 03:05:39;;;;;;;27.77;24.35;;;;;;;;;;4876227;29;20025;-80
2023/04/09 03:08:05;;;;;;;22.67;20.33;;;;;;;;;;4869419;29;20033;-80
2023/04/09 03:10:30;;;;;;;26.60;22.35;;;;;;;;;;4879151;29;20029;-81
2023/04/09 03:12:55;;;;;;;23.30;20.90;;;;;;;;;;4875783;29;20044;-80
2023/04/09 03:15:21;;;;;;;25.23;22.50;;;;;;;;;;4885305;29;20412;-81
2023/04/09 03:17:46;;;;;;;25.48;22.80;;;;;;;;;;4879736;29;20037;-80
2023/04/09 03:20:11;;;;;;;23.60;21.10;;;;;;;;;;4876265;29;20024;-80
2023/04/09 03:22:37;;;;;;;24.85;22.25;;;;;;;;;;4865584;29;20029;-80
2023/04/09 03:25:02;;;;;;;24.60;21.98;;;;;;;;;;4875554;29;20013;-81
2023/04/09 03:27:28;;;;;;;24.23;21.27;;;;;;;;;;4876794;29;20100;-80
2023/04/09 03:29:56;;;;;;;25.67;22.92;;;;;;;;;;4882106;29;20097;-81
2023/04/09 03:32:21;;;;;;;21.95;19.63;;;;;;;;;;4879931;29;20036;-81
2023/04/09 03:34:46;;;;;;;17.70;15.80;;;;;;;;;;4872804;29;20420;-81
2023/04/09 03:37:12;;;;;;;20.60;17.77;;;;;;;;;;4877469;29;20061;-80
2023/04/09 03:39:37;;;;;;;21.55;19.25;;;;;;;;;;4873956;29;20150;-81
2023/04/09 03:42:04;;;;;;;21.88;18.55;;;;;;;;;;4878021;29;20044;-80
2023/04/09 03:47:04;;;;;;;21.98;16.48;;;;;;;;;;4997768;23;20065;-84
2023/04/09 03:49:30;;;;;;;20.00;15.77;;;;;;;;;;4916458;29;20104;-83
2023/04/09 03:51:55;;;;;;;19.65;15.80;;;;;;;;;;4914010;29;20056;-83
2023/04/09 03:54:20;;;;;;;21.27;17.10;;;;;;;;;;4898553;29;20004;-83
2023/04/09 03:56:46;;;;;;;20.70;16.88;;;;;;;;;;4909003;29;20027;-83
2023/04/09 03:59:11;;;;;;;20.65;17.50;;;;;;;;;;4915613;29;20029;-84
2023/04/09 04:01:37;;;;;;;26.65;18.17;;;;;;;;;;4895571;29;20017;-83
2023/04/09 04:04:02;;;;;;;19.60;14.95;;;;;;;;;;4892515;29;20420;-80
2023/04/09 04:06:27;;;;;;;19.30;16.15;;;;;;;;;;4897800;29;20035;-80
2023/04/09 04:08:53;;;;;;;19.83;17.15;;;;;;;;;;4900945;29;20033;-79
2023/04/09 04:11:18;;;;;;;18.25;14.65;;;;;;;;;;4903469;29;20064;-83
2023/04/09 04:13:43;;;;;;;22.20;18.55;;;;;;;;;;4889707;29;20036;-80
2023/04/09 04:16:09;;;;;;;21.05;17.00;;;;;;;;;;4882981;29;20117;-79
2023/04/09 04:18:34;;;;;;;18.73;16.73;;;;;;;;;;4892923;29;20056;-80
2023/04/09 04:20:59;;;;;;;18.65;15.68;;;;;;;;;;4892371;29;20569;-78
2023/04/09 04:23:25;;;;;;;21.00;18.23;;;;;;;;;;4888434;29;20028;-79
2023/04/09 04:25:51;;;;;;;20.92;17.80;;;;;;;;;;4888086;29;20028;-79
2023/04/09 04:28:17;;;;;;;20.58;18.25;;;;;;;;;;4885557;29;20037;-78
2023/04/09 04:30:42;;;;;;;18.23;15.95;;;;;;;;;;4870543;29;20036;-78
2023/04/09 04:33:08;;;;;;;20.67;18.48;;;;;;;;;;4871452;29;20532;-79
2023/04/09 04:35:33;;;;;;;19.65;16.75;;;;;;;;;;4871615;29;20017;-79
2023/04/09 04:37:58;;;;;;;17.88;16.02;;;;;;;;;;4871560;29;20928;-79
2023/04/09 04:40:24;;;;;;;20.75;14.98;;;;;;;;;;4866460;29;20237;-79
2023/04/09 04:42:49;;;;;;;19.20;17.13;;;;;;;;;;4863645;29;20511;-79
2023/04/09 04:45:14;;;;;;;16.20;14.60;;;;;;;;;;4870534;29;20039;-79
2023/04/09 04:47:40;;;;;;;16.73;15.02;;;;;;;;;;4871695;29;20535;-79
2023/04/09 04:50:05;;;;;;;16.15;14.25;;;;;;;;;;4855608;29;20025;-79
2023/04/09 04:52:31;;;;;;;13.82;12.43;;;;;;;;;;4863614;29;20412;-78
2023/04/09 04:54:56;;;;;;;13.65;12.20;;;;;;;;;;4848743;29;20026;-78
2023/04/09 04:57:21;;;;;;;18.48;16.23;;;;;;;;;;4854759;29;20036;-78
2023/04/09 04:59:47;;;;;;;19.95;17.85;;;;;;;;;;4857476;29;20037;-77
2023/04/09 05:02:12;;;;;;;19.13;17.13;;;;;;;;;;4869320;29;20032;-79
2023/04/09 05:04:37;;;;;;;18.63;16.77;;;;;;;;;;4876038;29;20017;-78
2023/04/09 05:07:03;;;;;;;19.92;17.92;;;;;;;;;;4862026;29;20048;-78
2023/04/09 05:09:28;;;;;;;17.88;16.17;;;;;;;;;;4872277;29;20032;-79
2023/04/09 05:11:53;;;;;;;18.10;16.33;;;;;;;;;;4860449;29;20462;-78
2023/04/09 05:14:20;;;;;;;19.70;17.58;;;;;;;;;;4869293;29;20032;-78
2023/04/09 05:16:45;;;;;;;18.77;16.85;;;;;;;;;;4872031;29;20041;-78
2023/04/09 05:19:11;;;;;;;17.83;16.05;;;;;;;;;;4859307;29;20076;-78
2023/04/09 05:21:36;;;;;;;19.05;17.15;;;;;;;;;;4869868;29;20028;-77
2023/04/09 05:24:01;;;;;;;19.58;16.45;;;;;;;;;;4872030;29;20108;-78
2023/04/09 05:26:27;;;;;;;17.55;15.73;;;;;;;;;;4869655;29;20025;-77
2023/04/09 05:28:53;;;;;;;16.98;15.32;;;;;;;;;;4863639;29;20043;-78
2023/04/09 05:31:18;;;;;;;17.25;14.73;;;;;;;;;;4869533;29;20039;-76
2023/04/09 05:33:43;;;;;;;16.85;15.15;;;;;;;;;;4850592;29;20120;-79
2023/04/09 05:36:13;;;;;;;18.05;16.25;;;;;;;;;;4860425;29;20029;-77
2023/04/09 05:38:38;;;;;;;14.18;12.50;;;;;;;;;;4870319;29;20021;-78
2023/04/09 05:41:04;;;;;;;16.58;13.93;;;;;;;;;;4864220;29;20029;-77
2023/04/09 05:43:29;;;;;;;18.75;16.85;;;;;;;;;;4870156;29;20029;-77
2023/04/09 05:45:54;;;;;;;19.52;17.40;;;;;;;;;;4860759;29;20505;-77
2023/04/09 05:48:20;;;;;;;21.08;17.75;;;;;;;;;;4850888;29;20041;-77
2023/04/09 05:50:51;;;;;;;18.42;16.20;;;;;;;;;;4870372;29;20059;-77
2023/04/09 05:53:16;;;;;;;19.13;17.17;;;;;;;;;;4870460;29;20037;-77
2023/04/09 05:55:41;;;;;;;17.25;15.45;;;;;;;;;;4869069;29;20081;-77
2023/04/09 05:58:07;;;;;;;17.05;15.35;;;;;;;;;;4851271;29;20087;-78
2023/04/09 06:00:32;;;;;;;18.10;16.35;;;;;;;;;;4856219;29;20021;-79
2023/04/09 06:02:57;;;;;;;18.27;15.45;;;;;;;;;;4849061;29;20026;-79
2023/04/09 06:05:23;;;;;;;18.30;16.10;;;;;;;;;;4862790;29;21736;-79
2023/04/09 06:07:48;;;;;;;20.25;18.17;;;;;;;;;;4855820;29;20017;-79
2023/04/09 06:10:13;;;;;;;19.35;17.25;;;;;;;;;;4867295;29;20029;-78
2023/04/09 06:12:39;;;;;;;18.08;16.38;;;;;;;;;;4855059;29;20045;-78
2023/04/09 06:15:05;;;;;;;17.65;15.70;;;;;;;;;;4866106;29;20112;-77
2023/04/09 06:17:31;;;;;;;19.08;16.73;;;;;;;;;;4855214;29;20033;-77
2023/04/09 06:19:56;;;;;;;21.48;19.05;;;;;;;;;;4865514;29;20035;-78
2023/04/09 06:22:21;;;;;;;18.10;16.10;;;;;;;;;;4869381;29;20037;-77
2023/04/09 06:24:47;;;;;;;18.00;16.07;;;;;;;;;;4871490;29;20080;-78
2023/04/09 06:27:12;;;;;;;16.17;13.85;;;;;;;;;;4867133;29;20305;-78
2023/04/09 06:29:37;;;;;;;17.48;15.77;;;;;;;;;;4864665;29;20032;-77
2023/04/09 06:32:02;;;;;;;15.30;13.70;;;;;;;;;;4871611;29;20018;-78
2023/04/09 06:34:28;;;;;;;18.77;16.52;;;;;;;;;;4871823;29;20028;-78
2023/04/09 06:36:53;;;;;;;17.13;15.32;;;;;;;;;;4872840;29;20075;-78
2023/04/09 06:39:19;;;;;;;17.65;14.07;;;;;;;;;;4870471;29;20543;-77
2023/04/09 06:41:45;;;;;;;17.00;15.32;;;;;;;;;;4869372;29;20025;-77
2023/04/09 06:44:10;;;;;;;18.70;15.40;;;;;;;;;;4869492;29;20116;-77
2023/04/09 06:46:35;;;;;;;17.40;14.82;;;;;;;;;;4871844;29;20132;-77
2023/04/09 06:49:01;;;;;;;17.33;15.48;;;;;;;;;;4868480;29;20031;-76
2023/04/09 06:51:26;;;;;;;16.85;15.07;;;;;;;;;;4869705;29;20539;-77
2023/04/09 06:53:51;;;;;;;18.08;16.17;;;;;;;;;;4870683;29;20040;-77
2023/04/09 06:56:17;;;;;;;16.92;15.23;;;;;;;;;;4869639;29;20057;-77
2023/04/09 06:58:42;;;;;;;16.73;15.02;;;;;;;;;;4866349;29;20024;-78
2023/04/09 07:01:07;;;;;;;18.52;16.27;;;;;;;;;;4867880;29;20029;-77
2023/04/09 07:03:33;;;;;;;16.63;14.93;;;;;;;;;;4872134;29;20115;-78
2023/04/09 07:05:58;;;;;;;18.35;13.27;;;;;;;;;;4870610;29;20040;-77
2023/04/09 07:08:23;;;;;;;17.95;16.17;;;;;;;;;;4871427;29;20037;-78
2023/04/09 07:10:48;;;;;;;17.27;15.48;;;;;;;;;;4859872;29;20457;-78
2023/04/09 07:13:14;;;;;;;17.63;15.75;;;;;;;;;;4852030;29;20034;-78
2023/04/09 07:15:39;;;;;;;16.42;14.82;;;;;;;;;;4868451;29;20419;-78
2023/04/09 07:18:06;;;;;;;17.23;15.52;;;;;;;;;;4871719;29;20431;-78
2023/04/09 07:20:33;;;;;;;16.83;15.05;;;;;;;;;;4855102;29;20032;-78
2023/04/09 07:22:58;;;;;;;16.25;14.55;;;;;;;;;;4860876;29;20029;-78
2023/04/09 07:25:25;;;;;;;15.95;14.43;;;;;;;;;;4869085;29;20085;-78
2023/04/09 07:27:50;;;;;;;15.75;14.15;;;;;;;;;;4869808;29;20448;-77
2023/04/09 07:30:15;;;;;;;15.90;13.57;;;;;;;;;;4871038;29;20415;-78
2023/04/09 07:32:41;;;;;;;15.52;13.95;;;;;;;;;;4864795;29;20218;-79
2023/04/09 07:35:08;;;;;;;14.73;13.30;;;;;;;;;;4862171;29;20018;-78
2023/04/09 07:37:34;;;;;;;15.40;13.90;;;;;;;;;;4863436;29;20036;-78
2023/04/09 07:39:59;;;;;;;14.13;12.48;;;;;;;;;;4861245;29;20029;-78
2023/04/09 07:42:25;;;;;;;14.63;12.75;;;;;;;;;;4856806;29;20108;-78
2023/04/09 07:44:51;;;;;;;13.52;12.23;;;;;;;;;;4862410;29;20086;-80
2023/04/09 07:47:16;;;;;;;15.32;13.93;;;;;;;;;;4875493;29;20045;-79
2023/04/09 07:49:43;;;;;;;13.40;12.20;;;;;;;;;;4871962;29;20029;-78
2023/04/09 07:52:08;;;;;;;14.23;12.82;;;;;;;;;;4868591;29;20112;-80
2023/04/09 07:54:34;;;;;;;14.85;13.35;;;;;;;;;;4867586;29;20113;-78
2023/04/09 07:57:00;;;;;;;13.20;11.90;;;;;;;;;;4879086;29;20041;-80
2023/04/09 07:59:26;;;;;;;12.52;11.35;;;;;;;;;;4869434;29;20157;-80
2023/04/09 08:01:52;;;;;;;11.63;10.73;;;;;;;;;;4863730;29;20029;-79
2023/04/09 08:04:17;;;;;;;12.02;11.05;;;;;;;;;;4866551;29;20025;-79
2023/04/09 08:06:46;;;;;;;10.90;9.90;;;;;;;;;;4867864;29;20036;-80
2023/04/09 08:09:11;;;;;;;;;;;;;;;;;;4877076;29;20161;-79
2023/04/09 08:11:37;;;;;;;10.80;9.82;;;;;;;;;;4871683;29;20446;-80
2023/04/09 08:14:03;;;;;;;11.48;10.38;;;;;;;;;;4874947;29;20048;-80
2023/04/09 08:16:29;;;;;;;11.05;10.05;;;;;;;;;;4874084;29;20081;-80
2023/04/09 08:18:55;;;;;;;11.00;10.00;;;;;;;;;;4872528;29;20054;-80
2023/04/09 08:21:20;;;;;;;9.30;8.35;;;;;;;;;;4877265;29;20180;-81
2023/04/09 08:23:45;;;;;;;11.60;8.48;;;;;;;;;;4880129;29;20021;-80
2023/04/09 08:26:11;;;;;;;8.73;8.02;;;;;;;;;;4867265;29;20033;-80
2023/04/09 08:28:36;;;;;;;7.50;6.90;;;;;;;;;;4884430;29;20017;-80
2023/04/09 08:31:09;;;;;;;8.38;7.57;;;;;;;;;;4927365;23;20088;-82
2023/04/09 08:33:35;;;;;;;7.90;7.20;;;;;;;;;;4908996;29;20040;-80
2023/04/09 08:36:10;;;;;;;7.80;7.20;;;;;;;;;;4917591;29;20001;-83
2023/04/09 08:38:39;;;;;;;7.68;7.07;;;;;;;;;;4917026;29;20016;-82
2023/04/09 08:41:04;;;;;;;;;;;;;;;;;;4917853;29;20089;-82
2023/04/09 08:43:31;;;;;;;6.55;6.05;;;;;;;;;;4914737;29;19911;-81
2023/04/09 08:46:01;;;;;;;6.50;6.00;;;;;;;;;;4899727;29;20029;-81
2023/04/09 08:48:27;;;;;;;5.93;5.53;;;;;;;;;;4899929;29;20052;-79
2023/04/09 08:50:55;;;;;;;6.35;5.88;;;;;;;;;;5382848;23;20052;-80
2023/04/09 08:53:22;;;;;;;6.93;6.43;;;;;;;;;;5182050;23;20049;-80
2023/04/09 08:55:47;;;;;;;8.75;8.10;;;;;;;;;;5010750;23;20049;-80
2023/04/09 08:58:13;;;;;;;7.93;7.43;;;;;;;;;;4911864;29;20115;-80
2023/04/09 09:00:39;;;;;;;6.85;6.35;;;;;;;;;;4917071;29;20005;-83
2023/04/09 09:03:11;;;;;;;7.32;6.82;;;;;;;;;;4920020;29;20021;-81
2023/04/09 09:05:41;;;;;;;7.53;6.82;;;;;;;;;;4935244;29;20043;-81
2023/04/09 09:08:14;;;;;;;6.68;6.15;;;;;;;;;;5139103;23;20060;-81
2023/04/09 09:10:41;;;;;;;6.53;6.03;;;;;;;;;;4919664;29;20048;-84
2023/04/09 09:13:18;;;;;;;6.65;6.13;;;;;;;;;;4917753;29;20104;-82
2023/04/09 09:23:37;;;;;;;6.05;5.65;;;;;;;;;;4917471;29;25083;-82
2023/04/09 09:36:10;;;;;;;4.70;4.40;;;;;;;;;;5350019;23;20007;-79
2023/04/09 09:54:01;;;;;;;4.28;3.97;;;;;;;;;;5959254;23;19917;-79
2023/04/09 09:56:33;;;;;;;4.30;4.00;;;;;;;;;;5314034;23;20063;-80
2023/04/09 10:01:35;;;;;;;4.15;3.85;;;;;;;;;;5772822;23;19932;-81
2023/04/09 10:04:01;;;;;;;3.88;3.58;;;;;;;;;;4919925;29;20017;-82
2023/04/09 10:06:27;;;;;;;4.47;4.07;;;;;;;;;;4915985;29;20037;-81
2023/04/09 10:08:57;;;;;;;3.53;3.33;;;;;;;;;;4904241;29;20033;-78
2023/04/09 10:11:22;;;;;;;;;;;;;;;;;;4918739;29;20486;-82
2023/04/09 10:21:53;;;;;;;4.00;3.70;;;;;;;;;;5450699;23;20281;-78
2023/04/09 10:27:09;;;;;;;3.22;2.92;;;;;;;;;;4922458;29;19951;-77
2023/04/09 10:29:41;;;;;;;3.35;3.15;;;;;;;;;;4963772;23;20056;-80
2023/04/09 10:32:06;;;;;;;3.72;3.42;;;;;;;;;;4911311;29;20020;-76
2023/04/09 10:34:36;;;;;;;5.15;3.35;;;;;;;;;;4905398;29;20312;-80
2023/04/09 10:37:02;;;;;;;4.00;3.70;;;;;;;;;;4920934;29;20482;-81
2023/04/09 10:39:31;;;;;;;3.53;3.33;;;;;;;;;;4915492;29;20008;-79
2023/04/09 10:42:03;;;;;;;3.65;3.42;;;;;;;;;;5130247;23;20048;-81
2023/04/09 10:47:04;;;;;;;3.63;3.33;;;;;;;;;;4889303;29;19931;-80
2023/04/09 10:49:39;;;;;;;2.95;2.75;;;;;;;;;;4920524;23;20133;-82
2023/04/09 10:57:25;;;;;;;4.47;3.55;;;;;;;;;;5617040;23;19926;-82
2023/04/09 10:59:52;;;;;;;3.95;3.75;;;;;;;;;;4953810;28;20039;-78
2023/04/09 11:07:24;;;;;;;4.03;3.72;;;;;;;;;;5889147;23;19924;-78
2023/04/09 11:09:50;;;;;;;3.60;3.30;;;;;;;;;;5211197;23;20093;-79
2023/04/09 11:12:15;;;;;;;4.10;3.50;;;;;;;;;;4948640;29;20029;-84
2023/04/09 11:19:51;;;;;;;3.28;3.08;;;;;;;;;;5269971;23;19934;-81
2023/04/09 11:22:16;;;;;;;4.13;3.42;;;;;;;;;;4949715;29;20024;-80
2023/04/09 11:24:42;;;;;;;3.22;3.03;;;;;;;;;;4937168;29;20008;-79
2023/04/09 11:29:42;;;;;;;3.80;3.50;;;;;;;;;;5438275;23;20043;-79
2023/04/09 11:32:08;;;;;;;3.33;3.03;;;;;;;;;;5155924;23;20059;-81
2023/04/09 11:34:33;;;;;;;4.60;3.10;;;;;;;;;;4924229;29;20027;-82
2023/04/09 11:37:01;;;;;;;3.53;3.33;;;;;;;;;;4923820;29;20119;-80
2023/04/09 11:39:26;;;;;;;3.53;3.30;;;;;;;;;;5133911;23;20034;-80
2023/04/09 11:41:54;;;;;;;2.83;2.63;;;;;;;;;;4967805;28;20023;-80
2023/04/09 11:44:20;;;;;;;2.88;2.67;;;;;;;;;;4967573;28;20026;-81
2023/04/09 11:46:46;;;;;;;3.35;3.15;;;;;;;;;;4974898;28;20011;-82
2023/04/09 11:54:21;;;;;;;3.53;3.33;;;;;;;;;;5514359;23;19929;-78
2023/04/09 11:56:54;;;;;;;3.33;3.13;;;;;;;;;;5135699;23;20037;-81
2023/04/09 11:59:20;;;;;;;3.22;3.03;;;;;;;;;;4894760;29;20008;-83
2023/04/09 12:01:48;;;;;;;3.35;3.15;;;;;;;;;;4918650;29;20024;-84
2023/04/09 12:06:58;;;;;;;5.03;3.30;;;;;;;;;;5147964;23;20063;-80
2023/04/09 12:09:23;;;;;;;3.88;3.58;;;;;;;;;;4923741;29;20032;-78
2023/04/09 12:11:49;;;;;;;7.35;3.75;;;;;;;;;;4932728;29;20043;-82
2023/04/09 12:19:44;;;;;;;3.70;3.40;;;;;;;;;;5666354;23;20063;-81
2023/04/09 12:22:09;;;;;;;3.60;3.30;;;;;;;;;;4944981;29;20042;-77
2023/04/09 12:24:34;;;;;;;3.60;3.30;;;;;;;;;;4931978;29;20078;-79
2023/04/09 12:27:00;;;;;;;3.75;3.50;;;;;;;;;;4942053;29;20024;-80
2023/04/09 12:29:25;;;;;;;3.83;3.50;;;;;;;;;;4955077;28;20062;-81
2023/04/09 12:31:52;;;;;;;3.50;3.30;;;;;;;;;;4943632;29;20350;-80
2023/04/09 12:34:18;;;;;;;4.13;3.83;;;;;;;;;;4942802;29;20067;-77
2023/04/09 12:36:43;;;;;;;3.90;3.60;;;;;;;;;;4931839;29;20027;-79
2023/04/09 12:39:09;;;;;;;3.75;3.47;;;;;;;;;;4985295;23;20067;-80
2023/04/09 12:41:34;;;;;;;3.70;3.50;;;;;;;;;;4921734;29;20062;-81
2023/04/09 12:44:00;;;;;;;3.60;3.30;;;;;;;;;;4942401;29;20032;-81
2023/04/09 12:46:27;;;;;;;3.38;3.08;;;;;;;;;;4924217;29;20032;-81
2023/04/09 12:48:52;;;;;;;4.10;3.40;;;;;;;;;;5011029;23;20087;-80
2023/04/09 12:51:18;;;;;;;3.95;3.65;;;;;;;;;;4968981;29;20023;-81
2023/04/09 12:53:43;;;;;;;6.70;4.00;;;;;;;;;;4961551;29;20053;-78
2023/04/09 12:56:09;;;;;;;4.38;4.07;;;;;;;;;;5276297;23;20058;-81
2023/04/09 12:58:34;;;;;;;3.70;3.40;;;;;;;;;;4981100;28;20022;-81
2023/04/09 13:01:02;;;;;;;3.60;3.35;;;;;;;;;;4972530;28;20085;-79
2023/04/09 13:03:28;;;;;;;3.47;3.28;;;;;;;;;;4963444;28;20106;-79
2023/04/09 13:05:53;;;;;;;3.45;3.17;;;;;;;;;;4961948;28;20777;-79
2023/04/09 13:08:19;;;;;;;3.70;3.50;;;;;;;;;;4949858;28;20015;-80
2023/04/09 13:10:48;;;;;;;3.60;3.35;;;;;;;;;;4949526;29;20028;-82
2023/04/09 13:13:13;;;;;;;5.75;5.15;;;;;;;;;;4973979;28;20035;-79
2023/04/09 13:15:42;;;;;;;4.80;4.40;;;;;;;;;;4938443;29;20027;-80
2023/04/09 13:18:08;;;;;;;4.43;4.13;;;;;;;;;;4951982;28;20023;-79
2023/04/09 13:20:33;;;;;;;3.83;3.53;;;;;;;;;;4929210;29;20108;-78
2023/04/09 13:22:58;;;;;;;4.18;3.88;;;;;;;;;;4933042;29;20474;-78
2023/04/09 13:25:23;;;;;;;3.88;3.58;;;;;;;;;;4912722;29;20490;-77
2023/04/09 13:27:49;;;;;;;3.80;3.50;;;;;;;;;;4945344;29;20102;-78
2023/04/09 13:30:14;;;;;;;4.33;3.93;;;;;;;;;;4934998;29;20267;-78
2023/04/09 13:32:41;;;;;;;7.30;5.55;;;;;;;;;;4934529;29;20299;-78
2023/04/09 13:35:06;;;;;;;7.90;7.15;;;;;;;;;;4943706;29;20016;-79
2023/04/09 13:37:31;;;;;;;8.48;7.60;;;;;;;;;;4916402;29;20028;-79
2023/04/09 13:39:57;;;;;;;9.48;8.57;;;;;;;;;;4952119;29;20106;-79
2023/04/09 13:42:22;;;;;;;8.95;6.43;;;;;;;;;;4922707;29;20133;-77
2023/04/09 13:44:47;;;;;;;7.97;7.18;;;;;;;;;;4945801;29;20023;-79
2023/04/09 13:47:14;;;;;;;6.90;6.40;;;;;;;;;;4936166;29;20434;-79
2023/04/09 13:49:40;;;;;;;8.43;7.63;;;;;;;;;;4934996;29;20269;-80
2023/04/09 13:52:06;;;;;;;9.55;8.65;;;;;;;;;;4934150;29;20031;-80
2023/04/09 13:54:32;;;;;;;14.93;11.15;;;;;;;;;;4965699;29;20091;-80
2023/04/09 13:56:57;;;;;;;7.72;6.93;;;;;;;;;;4950647;29;20053;-81
2023/04/09 13:59:23;;;;;;;9.55;8.75;;;;;;;;;;4947422;29;20075;-79
2023/04/09 14:01:48;;;;;;;8.40;7.55;;;;;;;;;;4943267;29;20047;-80
2023/04/09 14:04:13;;;;;;;8.75;7.88;;;;;;;;;;4940679;29;20054;-79
2023/04/09 14:06:39;;;;;;;10.50;9.40;;;;;;;;;;4920846;29;20027;-78
2023/04/09 14:09:04;;;;;;;9.55;8.68;;;;;;;;;;4939937;29;20035;-79
2023/04/09 14:11:29;;;;;;;9.63;8.70;;;;;;;;;;4941955;29;20079;-76
2023/04/09 14:13:55;;;;;;;10.25;9.25;;;;;;;;;;4940592;29;20102;-77
2023/04/09 14:16:21;;;;;;;8.77;7.97;;;;;;;;;;4911106;29;20024;-78
2023/04/09 14:18:46;;;;;;;9.23;8.40;;;;;;;;;;4931610;29;20110;-80
2023/04/09 14:21:11;;;;;;;9.43;8.45;;;;;;;;;;4931305;29;20027;-79
2023/04/09 14:23:38;;;;;;;9.57;8.57;;;;;;;;;;4932959;29;20028;-77
2023/04/09 14:26:04;;;;;;;11.77;9.63;;;;;;;;;;4942896;29;20910;-78
2023/04/09 14:28:30;;;;;;;11.70;10.52;;;;;;;;;;4933515;29;20016;-80
2023/04/09 14:30:56;;;;;;;9.57;8.68;;;;;;;;;;4934754;29;20020;-81
2023/04/09 14:33:21;;;;;;;9.43;8.63;;;;;;;;;;4955897;28;20039;-81
2023/04/09 14:35:46;;;;;;;10.02;9.13;;;;;;;;;;4964101;29;20037;-82
2023/04/09 14:38:12;;;;;;;9.80;9.10;;;;;;;;;;4973060;28;20027;-82
2023/04/09 14:40:37;;;;;;;11.23;10.00;;;;;;;;;;4965226;29;20039;-82
2023/04/09 14:43:02;;;;;;;8.23;7.63;;;;;;;;;;4979631;28;20011;-82
2023/04/09 14:45:28;;;;;;;10.18;9.18;;;;;;;;;;4962472;28;20024;-82
2023/04/09 14:47:54;;;;;;;9.73;8.93;;;;;;;;;;4946237;29;20095;-82
2023/04/09 14:50:20;;;;;;;9.07;8.27;;;;;;;;;;4954009;29;20030;-81
2023/04/09 14:52:46;;;;;;;9.27;7.80;;;;;;;;;;4963701;28;20027;-80
2023/04/09 14:55:12;;;;;;;9.43;8.63;;;;;;;;;;4953377;29;20016;-81
2023/04/09 14:57:38;;;;;;;9.07;8.27;;;;;;;;;;4960271;29;20039;-82
2023/04/09 15:00:05;;;;;;;8.05;7.30;;;;;;;;;;4954199;29;20059;-79
2023/04/09 15:02:30;;;;;;;9.75;8.75;;;;;;;;;;4969752;29;20016;-80
2023/04/09 15:04:55;;;;;;;10.15;9.20;;;;;;;;;;4975263;29;20030;-81
2023/04/09 15:07:21;;;;;;;9.90;8.90;;;;;;;;;;4962175;29;20030;-81
2023/04/09 15:09:46;;;;;;;8.70;7.75;;;;;;;;;;4964186;29;20019;-79
2023/04/09 15:12:11;;;;;;;9.82;8.88;;;;;;;;;;4944951;29;20023;-80
2023/04/09 15:14:37;;;;;;;9.85;8.95;;;;;;;;;;4952683;29;20053;-80
2023/04/09 15:17:02;;;;;;;9.73;8.82;;;;;;;;;;4947314;29;20020;-81
2023/04/09 15:19:27;;;;;;;10.13;9.13;;;;;;;;;;4944027;29;20038;-79
2023/04/09 15:21:53;;;;;;;8.80;7.97;;;;;;;;;;4945488;29;20087;-78
2023/04/09 15:24:18;;;;;;;9.35;8.45;;;;;;;;;;4954442;29;20023;-80
2023/04/09 15:26:43;;;;;;;11.75;8.98;;;;;;;;;;4947771;29;20083;-81
2023/04/09 15:29:09;;;;;;;9.85;8.85;;;;;;;;;;4959672;28;20024;-82
2023/04/09 15:31:35;;;;;;;8.57;7.82;;;;;;;;;;4958404;29;20038;-81
2023/04/09 15:34:00;;;;;;;10.27;8.45;;;;;;;;;;4958405;28;20039;-82
2023/04/09 15:36:27;;;;;;;9.40;8.50;;;;;;;;;;4956434;29;20003;-81
2023/04/09 15:38:53;;;;;;;9.55;8.65;;;;;;;;;;4963037;29;20027;-81
2023/04/09 15:41:20;;;;;;;12.65;9.93;;;;;;;;;;4947147;28;20082;-80
2023/04/09 15:43:45;;;;;;;9.50;8.70;;;;;;;;;;4947094;29;20027;-81
2023/04/09 15:46:11;;;;;;;10.38;9.25;;;;;;;;;;4957820;29;20035;-82